To NAV CANADA Home Page Login to a new session Search on AWWS site Feedback and Comments Disclaimer Vers la page française équivalente Tips FAQ What's new on the site To the Forecasts and Observations / NOTAM section To "File a Flight Plan" website Publications and other links Update of the User's profile FIC Telephone Numbers My Weather Data Folder Route Weather Data Regional Weather Data Local Weather Data To the Forecasts and Observations / NOTAM section
Request Generated 09/03/2015 at 02:24:22 UTC . Weather information available at that time is displayed.

METAR/TAF

CARTWRIGHT/NL    

METAR CWCA 030200Z 09004KT 040V110 15SM BKN040 06/05 A2962 RMK SC7
SLP031=
SPECI CWCA 030136Z 07003KT 360V090 15SM OVC040 06/05 A2963 RMK SC8
SLP035=
METAR CWCA 030100Z 10004KT 15SM -SHRA OVC040 06/05 A2964 RMK SC8
SLP037=
METAR CWCA 030000Z 09005KT 15SM -SHRA OVC040 07/05 A2965 RMK SC8
SLP042=

TAF CYCA 030138Z 0302/0314 ADVISORY OFFSITE 09006KT P6SM SCT020
OVC040 TEMPO 0302/0304 P6SM -SHRA BKN020 OVC040
FM030400 12006KT P6SM SCT009 OVC012 TEMPO 0304/0312 6SM -RA BR
BKN009 OVC012 PROB30 0304/0312 1SM BR BKN005
FM031200 03008KT 6SM -SHRA BR OVC008
RMK NXT FCST BY 030800Z=
Your time UTC time
Weather data provided by Environment Canada and NAV CANADA